Time;durP1;ratioP1;P1;durP2;ratioP2;P2;SDS_P1;SDS_P2;PMS_P1;PMS_P2;Temp;Humidity;BMP_temperature;BMP_pressure;BME280_temperature;BME280_humidity;BME280_pressure;Samples;Min_cycle;Max_cycle;Signal;HPM_P1;HPM_P2
2022/12/23 00:01:50;;;;;;;65.85;39.65;;;;;;;3.12;71.06;98897.49;1762756;81;21510;-39
2022/12/23 00:04:17;;;;;;;66.30;40.92;;;;;;;3.08;71.10;98893.89;1762707;81;21051;-39
2022/12/23 00:06:44;;;;;;;66.97;39.70;;;;;;;3.05;71.18;98890.73;1762312;81;21244;-39
2022/12/23 00:09:10;;;;;;;64.97;40.03;;;;;;;3.08;71.24;98885.86;1755348;81;20968;-39
2022/12/23 00:15:03;;;;;;;64.25;39.85;;;;;;;3.08;71.13;98883.97;1759426;81;21451;-39
2022/12/23 00:16:36;;;;;;;46.42;28.05;;;;;;;3.09;70.86;98878.85;1703592;81;21064;-39
2022/12/23 00:19:03;;;;;;;59.55;38.10;;;;;;;3.09;70.68;98870.03;1756223;81;21835;-39
2022/12/23 00:21:32;;;;;;;63.83;37.28;;;;;;;3.08;70.60;98879.16;1758127;81;21522;-39
2022/12/23 00:23:59;;;;;;;64.47;38.38;;;;;;;3.00;70.76;98864.13;1759600;81;21000;-39
2022/12/23 00:26:26;;;;;;;67.87;36.35;;;;;;;2.99;70.97;98862.59;1758830;81;21095;-39
2022/12/23 00:28:57;;;;;;;60.35;36.73;;;;;;;3.00;70.76;98866.05;1754744;81;21016;-39
2022/12/23 00:31:24;;;;;;;62.55;36.05;;;;;;;2.94;70.62;98870.80;1762724;81;21214;-39
2022/12/23 00:33:53;;;;;;;60.30;35.58;;;;;;;2.88;70.73;98873.41;1758758;81;20944;-39
2022/12/23 00:36:26;;;;;;;57.53;34.53;;;;;;;2.81;70.71;98877.12;1763177;81;20933;-39
2022/12/23 00:44:24;;;;;;;59.03;35.13;;;;;;;2.71;71.03;98872.11;1762818;81;22131;-39
2022/12/23 00:46:50;;;;;;;58.40;34.08;;;;;;;2.65;71.31;98859.23;1759038;81;21451;-39
2022/12/23 00:52:04;;;;;;;52.10;31.85;;;;;;;2.56;71.46;98856.59;1758704;81;21043;-39
2022/12/23 00:54:31;;;;;;;57.30;33.20;;;;;;;2.53;71.60;98857.99;1762989;81;21092;-39
2022/12/23 00:56:59;;;;;;;53.73;31.87;;;;;;;2.57;71.63;98856.25;1762760;81;21134;-39
2022/12/23 00:59:27;;;;;;;51.18;32.13;;;;;;;2.63;71.32;98861.67;1762738;81;21009;-39
2022/12/23 01:07:24;;;;;;;56.60;31.62;;;;;;;2.56;71.58;98853.91;1753447;81;21564;-39
2022/12/23 01:09:50;;;;;;;57.40;32.73;;;;;;;2.57;71.74;98850.11;1763564;81;21241;-39
2022/12/23 01:12:17;;;;;;;53.98;31.15;;;;;;;2.60;71.75;98849.48;1763070;81;20973;-39
2022/12/23 01:14:44;;;;;;;48.68;28.73;;;;;;;2.63;71.70;98850.17;1754614;81;21633;-39
2022/12/23 01:17:11;;;;;;;52.53;30.43;;;;;;;2.66;71.45;98850.89;1759828;81;21088;-39
2022/12/23 01:19:38;;;;;;;50.55;31.73;;;;;;;2.70;71.35;98853.16;1764021;81;21036;-39
2022/12/23 01:22:05;;;;;;;50.88;31.50;;;;;;;2.73;71.20;98859.20;1763148;81;22127;-39
2022/12/23 01:24:31;;;;;;;53.08;31.15;;;;;;;2.70;71.05;98853.16;1754936;81;20972;-39
2022/12/23 01:26:59;;;;;;;54.20;30.23;;;;;;;2.69;71.04;98849.45;1758225;81;21090;-39
2022/12/23 01:29:26;;;;;;;50.12;30.32;;;;;;;2.64;71.10;98843.72;1756663;81;21005;-39
2022/12/23 01:31:52;;;;;;;53.50;30.30;;;;;;;2.59;71.25;98842.01;1749764;81;21087;-39
2022/12/23 01:34:19;;;;;;;46.35;28.92;;;;;;;2.61;71.16;98848.39;1754520;81;22110;-39
2022/12/23 01:36:46;;;;;;;45.80;29.00;;;;;;;2.64;71.10;98845.06;1758624;81;21028;-39
2022/12/23 01:39:13;;;;;;;46.70;29.37;;;;;;;2.72;70.96;98848.25;1759245;81;20917;-39
2022/12/23 01:44:50;;;;;;;49.20;29.52;;;;;;;2.70;71.04;98845.13;1763360;81;21005;-39
2022/12/23 01:47:43;;;;;;;50.40;30.52;;;;;;;2.65;71.03;98839.95;1756294;81;21142;-39
2022/12/23 01:50:18;;;;;;;51.37;30.05;;;;;;;2.57;71.19;98842.87;1759076;81;20945;-39
2022/12/23 01:53:05;;;;;;;47.35;27.75;;;;;;;2.46;71.52;98824.81;1759937;81;21644;-39
2022/12/23 01:55:40;;;;;;;45.63;27.73;;;;;;;2.48;71.80;98824.72;1731050;81;21008;-39
2022/12/23 01:58:14;;;;;;;46.58;28.98;;;;;;;2.54;71.75;98832.02;1759667;81;21561;-39
2022/12/23 02:03:41;;;;;;;49.83;29.70;;;;;;;2.54;71.81;98824.00;1754554;81;21526;-39
2022/12/23 02:09:16;;;;;;;43.35;27.35;;;;;;;2.55;71.93;98813.53;1757809;81;21023;-39
2022/12/23 02:12:26;;;;;;;46.35;27.65;;;;;;;2.52;71.89;98813.61;1757882;81;21032;-39
2022/12/23 02:18:50;;;;;;;42.95;27.22;;;;;;;2.61;71.85;98817.03;1759273;81;21008;-39
2022/12/23 02:21:37;;;;;;;48.85;29.05;;;;;;;2.58;71.84;98816.90;1762250;81;20964;-39
2022/12/23 02:24:21;;;;;;;45.23;28.50;;;;;;;2.53;72.06;98811.17;1755875;81;21092;-39
2022/12/23 11:54:18;;;;;;;57.90;42.67;;;;;;;7.28;62.25;98781.50;1755786;80;22269;-38
2022/12/23 11:56:49;;;;;;;82.10;51.98;;;;;;;7.50;61.35;98781.98;1744926;81;20959;-39
2022/12/23 11:59:42;;;;;;;51.28;34.65;;;;;;;7.58;60.85;98792.56;1761126;80;21163;-38
2022/12/23 12:02:23;;;;;;;53.83;35.88;;;;;;;7.68;60.21;98797.41;1752716;81;20976;-38
2022/12/23 12:04:56;;;;;;;50.08;33.38;;;;;;;7.69;59.93;98792.23;1752916;81;20949;-38
2022/12/23 12:07:23;;;;;;;52.53;36.00;;;;;;;7.65;59.75;98787.89;1752986;81;21019;-39
2022/12/23 12:09:50;;;;;;;47.67;31.75;;;;;;;7.55;59.79;98789.80;1752949;81;20997;-39
2022/12/23 12:12:19;;;;;;;48.98;32.78;;;;;;;7.40;60.03;98794.09;1752885;81;21804;-38
2022/12/23 12:14:55;;;;;;;50.10;32.05;;;;;;;7.20;60.20;98803.27;1753003;81;21100;-39
2022/12/23 12:17:44;;;;;;;52.15;35.38;;;;;;;6.92;60.67;98806.83;1752851;81;20980;-39
2022/12/23 12:20:32;;;;;;;47.37;32.60;;;;;;;6.67;61.33;98813.54;1753565;81;21040;-39
2022/12/23 12:23:07;;;;;;;47.25;32.10;;;;;;;6.48;61.79;98808.83;1753031;81;21040;-38
2022/12/23 12:25:45;;;;;;;54.60;34.78;;;;;;;6.29;62.41;98811.41;1752591;81;21255;-39
2022/12/23 12:28:25;;;;;;;52.15;33.40;;;;;;;6.17;62.82;98811.44;1752674;81;21541;-39
2022/12/23 12:31:05;;;;;;;52.73;34.13;;;;;;;6.04;63.24;98816.66;1753366;81;21600;-39
2022/12/23 12:33:39;;;;;;;50.55;32.48;;;;;;;5.92;63.58;98816.69;1752725;81;21463;-39
2022/12/23 12:36:48;;;;;;;49.45;33.08;;;;;;;5.80;64.00;98810.77;1752715;81;20977;-39
2022/12/23 12:39:29;;;;;;;54.35;33.28;;;;;;;5.74;64.30;98820.75;1753083;81;21240;-39
2022/12/23 12:42:18;;;;;;;51.42;32.10;;;;;;;5.66;64.62;98813.81;1752679;81;21799;-39
2022/12/23 12:45:13;;;;;;;51.73;33.67;;;;;;;5.64;64.79;98813.38;1752784;81;21099;-39
2022/12/23 12:48:13;;;;;;;55.78;33.33;;;;;;;5.60;65.02;98807.13;1752820;81;20930;-39
2022/12/23 12:50:43;;;;;;;51.02;32.50;;;;;;;5.56;65.28;98805.45;1752977;81;21048;-39
2022/12/23 12:53:17;;;;;;;53.10;34.40;;;;;;;5.58;65.42;98806.67;1758093;81;21522;-39
2022/12/23 12:56:03;;;;;;;56.08;35.15;;;;;;;5.60;65.32;98813.06;1758861;81;21530;-39
2022/12/23 12:58:30;;;;;;;53.17;34.43;;;;;;;5.57;65.44;98814.51;1746894;82;21013;-39
2022/12/23 13:01:18;;;;;;;52.48;33.98;;;;;;;5.52;65.59;98809.36;1747259;82;21067;-39
2022/12/23 13:04:08;;;;;;;50.20;32.53;;;;;;;5.48;65.77;98814.41;1747022;81;21067;-39
2022/12/23 13:06:57;;;;;;;48.23;31.85;;;;;;;5.49;65.89;98813.30;1747400;82;21146;-39
2022/12/23 13:09:48;;;;;;;52.78;33.75;;;;;;;5.52;65.88;98811.27;1747162;82;21043;-39
2022/12/23 13:12:23;;;;;;;53.75;33.90;;;;;;;5.50;65.97;98815.66;1735081;82;21021;-39
2022/12/23 13:15:04;;;;;;;56.80;33.78;;;;;;;5.48;66.04;98815.75;1747297;82;20992;-39
2022/12/23 13:17:42;;;;;;;54.48;33.15;;;;;;;5.45;66.06;98813.20;1747286;82;21522;-39
2022/12/23 13:20:26;;;;;;;55.85;34.15;;;;;;;5.41;66.07;98809.63;1747193;82;21309;-39
2022/12/23 13:22:56;;;;;;;56.75;34.92;;;;;;;5.35;66.15;98806.94;1747152;82;21053;-39
2022/12/23 13:25:29;;;;;;;56.60;34.67;;;;;;;5.24;66.38;98812.53;1747219;82;21029;-39
2022/12/23 13:28:07;;;;;;;59.25;36.33;;;;;;;5.17;66.55;98817.70;1747317;82;21080;-39
2022/12/23 13:30:45;;;;;;;58.95;36.42;;;;;;;5.09;66.71;98810.52;1731321;82;21100;-39
2022/12/23 13:33:34;;;;;;;51.70;32.60;;;;;;;5.10;66.84;98813.44;1731628;82;21503;-39
2022/12/23 13:36:27;;;;;;;51.70;33.30;;;;;;;5.15;66.72;98809.19;1729375;82;21016;-39
2022/12/23 13:39:07;;;;;;;52.73;33.63;;;;;;;5.18;66.72;98820.63;1761272;81;20976;-39
2022/12/23 13:41:46;;;;;;;52.50;33.50;;;;;;;5.16;66.71;98816.92;1758699;81;20885;-39
2022/12/23 13:44:13;;;;;;;54.73;34.70;;;;;;;5.08;66.77;98803.02;1747431;82;21056;-39
2022/12/23 13:47:13;;;;;;;55.75;35.15;;;;;;;5.04;66.82;98814.77;1747157;82;21235;-39
2022/12/23 13:50:00;;;;;;;56.65;35.30;;;;;;;4.96;67.01;98811.65;1690834;84;21041;-39
2022/12/23 13:52:51;;;;;;;55.45;35.25;;;;;;;4.78;67.39;98810.53;1703695;83;21502;-39
2022/12/23 13:55:35;;;;;;;55.88;35.25;;;;;;;4.66;67.74;98809.71;1713964;82;21015;-39
2022/12/23 13:58:10;;;;;;;53.63;34.53;;;;;;;4.51;68.29;98815.16;1760631;81;21001;-39
2022/12/23 14:00:37;;;;;;;53.45;32.78;;;;;;;4.43;68.57;98828.13;1752395;81;21248;-39
2022/12/23 14:03:16;;;;;;;56.35;34.92;;;;;;;4.42;68.72;98825.21;1749649;81;20992;-39
2022/12/23 14:05:50;;;;;;;55.80;34.33;;;;;;;4.35;68.92;98822.30;1752292;81;20969;-39
2022/12/23 14:08:26;;;;;;;56.90;36.10;;;;;;;4.29;69.15;98828.98;1752378;81;20929;-39
2022/12/23 14:11:06;;;;;;;58.68;36.00;;;;;;;4.24;69.30;98826.50;1751327;81;21031;-39
2022/12/23 14:13:47;;;;;;;56.08;36.20;;;;;;;4.20;69.37;98833.64;1752183;81;23151;-39
2022/12/23 14:16:52;;;;;;;59.70;37.25;;;;;;;4.12;69.50;98841.19;1748007;81;21009;-39
2022/12/23 14:19:37;;;;;;;55.30;33.38;;;;;;;4.04;69.60;98840.17;1752197;81;21522;-39
2022/12/23 14:22:44;;;;;;;57.43;33.73;;;;;;;4.01;69.64;98840.05;1752112;81;21088;-39
2022/12/23 14:25:28;;;;;;;54.48;35.25;;;;;;;4.03;69.71;98845.85;1752238;81;21087;-39
2022/12/23 14:28:46;;;;;;;56.75;34.70;;;;;;;4.03;69.86;98844.52;1752089;81;21188;-39
2022/12/23 14:31:36;;;;;;;61.42;36.23;;;;;;;3.99;70.11;98847.63;1752144;81;21075;-38
2022/12/23 14:34:08;;;;;;;56.92;36.23;;;;;;;3.93;70.31;98842.45;1752288;81;21023;-39
2022/12/23 14:36:35;;;;;;;56.98;36.40;;;;;;;3.94;70.48;98852.08;1741705;81;21549;-39
2022/12/23 14:39:16;;;;;;;58.52;36.73;;;;;;;3.99;70.57;98846.28;1752185;81;21470;-39
2022/12/23 14:41:53;;;;;;;57.20;35.33;;;;;;;4.05;70.55;98853.02;1752131;81;21944;-38
2022/12/23 14:44:38;;;;;;;63.87;37.17;;;;;;;4.08;70.35;98853.14;1752061;81;20976;-39
2022/12/23 14:47:34;;;;;;;54.77;35.03;;;;;;;4.15;70.22;98853.97;1750992;81;21015;-39
2022/12/23 14:50:35;;;;;;;55.28;35.75;;;;;;;4.22;70.29;98857.67;1731460;81;21036;-38
2022/12/23 14:53:23;;;;;;;59.90;38.23;;;;;;;4.22;70.23;98852.86;1752102;81;21112;-39
2022/12/23 14:56:10;;;;;;;61.35;37.40;;;;;;;4.19;70.24;98862.92;1752240;81;21522;-39
2022/12/23 14:58:55;;;;;;;57.83;36.85;;;;;;;4.18;70.22;98861.34;1746063;81;21020;-39
2022/12/23 15:01:39;;;;;;;57.58;36.38;;;;;;;4.17;70.25;98859.22;1713054;81;20996;-39
2022/12/23 15:04:17;;;;;;;58.95;36.20;;;;;;;4.15;70.14;98853.97;1752257;81;20981;-39
2022/12/23 15:06:50;;;;;;;59.10;36.55;;;;;;;4.13;70.13;98855.63;1752362;81;21061;-39
2022/12/23 15:09:29;;;;;;;56.55;35.08;;;;;;;4.13;70.15;98846.80;1752230;81;21337;-39
2022/12/23 15:11:59;;;;;;;57.48;37.00;;;;;;;4.18;70.04;98842.02;1752504;81;20937;-39
2022/12/23 15:14:37;;;;;;;59.65;38.15;;;;;;;4.22;70.08;98846.95;1752592;81;20948;-39
2022/12/23 15:17:29;;;;;;;56.70;36.25;;;;;;;4.20;70.15;98851.09;1752472;81;21549;-39
2022/12/23 23:31:51;;;;;;;65.08;43.42;;;;;;;3.23;83.15;98779.52;1787852;78;22063;-39
2022/12/23 23:34:18;;;;;;;63.40;41.08;;;;;;;3.40;82.23;98782.08;1762458;81;21498;-39
2022/12/23 23:36:45;;;;;;;67.20;42.48;;;;;;;3.45;81.97;98772.50;1764057;81;21189;-39
2022/12/23 23:39:12;;;;;;;66.45;43.28;;;;;;;3.50;81.36;98773.65;1764256;81;20964;-39
2022/12/23 23:41:39;;;;;;;68.47;43.42;;;;;;;3.54;80.76;98775.90;1764114;81;20972;-39
2022/12/23 23:44:08;;;;;;;70.17;43.02;;;;;;;3.57;80.34;98771.25;1764418;81;21031;-38
2022/12/23 23:46:35;;;;;;;67.78;41.83;;;;;;;3.64;79.68;98766.68;1764118;81;21031;-38
2022/12/23 23:49:01;;;;;;;68.55;42.13;;;;;;;3.72;78.95;98765.29;1764045;81;21233;-39
2022/12/23 23:51:28;;;;;;;68.10;43.08;;;;;;;3.76;78.24;98756.81;1763999;81;20893;-39
2022/12/23 23:53:55;;;;;;;70.80;42.05;;;;;;;3.73;77.98;98756.11;1764150;81;20920;-39
2022/12/23 23:56:22;;;;;;;69.65;42.00;;;;;;;3.74;77.91;98756.34;1764013;81;21026;-39
2022/12/23 23:58:48;;;;;;;69.12;45.52;;;;;;;3.78;77.64;98749.21;1764115;81;21020;-38
